Time;durP1;ratioP1;P1;durP2;ratioP2;P2;SDS_P1;SDS_P2;PMS_P1;PMS_P2;Temp;Humidity;BMP_temperature;BMP_pressure;BME280_temperature;BME280_humidity;BME280_pressure;Samples;Min_cycle;Max_cycle;Signal;HPM_P1;HPM_P2
2023/01/28 00:01:45;;;;;;;;;;;-0.50;99.90;;;;;;5035244;28;19924;-82
2023/01/28 00:04:10;;;;;;;;;;;-0.60;99.90;;;;;;5042077;28;19929;-81
2023/01/28 00:06:37;;;;;;;;;;;-0.60;99.90;;;;;;5038204;28;19914;-81
2023/01/28 00:09:02;;;;;;;;;;;-0.60;99.90;;;;;;5037971;28;19989;-81
2023/01/28 00:11:28;;;;;;;;;;;-0.60;99.90;;;;;;5035306;28;19921;-82
2023/01/28 00:13:54;;;;;;;;;;;-0.60;99.90;;;;;;5052947;28;19920;-83
2023/01/28 00:16:21;;;;;;;;;;;-0.60;99.90;;;;;;5051531;28;19913;-83
2023/01/28 00:18:47;;;;;;;;;;;-0.60;99.90;;;;;;5051814;28;19916;-81
2023/01/28 00:21:13;;;;;;;;;;;-0.60;99.90;;;;;;5057435;28;19928;-81
2023/01/28 00:23:39;;;;;;;;;;;-0.60;99.90;;;;;;5058202;28;19913;-82
2023/01/28 00:26:08;;;;;;;;;;;-0.60;99.90;;;;;;5057146;28;19976;-81
2023/01/28 00:28:34;;;;;;;;;;;-0.60;99.90;;;;;;5037710;28;19927;-81
2023/01/28 00:31:08;;;;;;;;;;;-0.60;99.90;;;;;;5027622;28;19985;-82
2023/01/28 00:33:34;;;;;;;;;;;-0.60;99.90;;;;;;5036452;28;19910;-81
2023/01/28 00:36:00;;;;;;;;;;;-0.60;99.90;;;;;;5056649;28;19924;-80
2023/01/28 00:38:26;;;;;;;;;;;-0.60;99.90;;;;;;5057036;28;19972;-81
2023/01/28 00:40:52;;;;;;;;;;;-0.70;99.90;;;;;;5057339;28;19913;-81
2023/01/28 00:43:17;;;;;;;;;;;-0.70;99.90;;;;;;5056883;28;19917;-80
2023/01/28 00:45:54;;;;;;;;;;;-0.70;99.90;;;;;;5044337;28;19909;-82
2023/01/28 00:48:20;;;;;;;;;;;-0.60;99.90;;;;;;5035893;28;19913;-81
2023/01/28 00:50:46;;;;;;;;;;;-0.70;99.90;;;;;;5037494;28;19921;-81
2023/01/28 00:53:11;;;;;;;;;;;-0.70;99.90;;;;;;5052677;28;19973;-81
2023/01/28 00:55:37;;;;;;;;;;;-0.70;99.90;;;;;;5036920;28;19937;-81
2023/01/28 00:58:03;;;;;;;;;;;-0.60;99.90;;;;;;5037574;28;19897;-81
2023/01/28 01:00:29;;;;;;;;;;;-0.60;99.90;;;;;;5052671;28;19920;-81
2023/01/28 01:02:54;;;;;;;;;;;-0.60;99.90;;;;;;5046009;28;19989;-81
2023/01/28 01:05:20;;;;;;;;;;;-0.60;99.90;;;;;;5055653;28;19924;-82
2023/01/28 01:07:45;;;;;;;;;;;-0.70;99.90;;;;;;5055758;28;20000;-82
2023/01/28 01:10:12;;;;;;;;;;;-0.80;99.90;;;;;;5055891;28;19913;-82
2023/01/28 01:12:38;;;;;;;;;;;-0.80;99.90;;;;;;5057543;28;19909;-82
2023/01/28 01:15:07;;;;;;;;;;;-0.80;99.90;;;;;;5072390;28;19928;-82
2023/01/28 01:17:33;;;;;;;;;;;-0.80;99.90;;;;;;5057349;28;19957;-82
2023/01/28 01:19:58;;;;;;;;;;;-0.80;99.90;;;;;;5051750;28;19924;-82
2023/01/28 01:22:24;;;;;;;;;;;-0.90;99.90;;;;;;5035600;28;20286;-81
2023/01/28 01:24:50;;;;;;;;;;;-0.90;99.90;;;;;;5035097;28;19921;-81
2023/01/28 01:27:15;;;;;;;;;;;-0.90;99.90;;;;;;5034152;28;19921;-81
2023/01/28 01:29:41;;;;;;;;;;;-0.90;99.90;;;;;;5031843;28;19909;-81
2023/01/28 01:32:06;;;;;;;;;;;-0.90;99.90;;;;;;5048552;28;19929;-80
2023/01/28 01:34:32;;;;;;;;;;;-0.90;99.90;;;;;;5039684;28;20131;-82
2023/01/28 01:36:57;;;;;;;;;;;-0.90;99.90;;;;;;5036784;28;19988;-81
2023/01/28 01:39:23;;;;;;;;;;;-0.90;99.90;;;;;;5055349;28;19952;-81
2023/01/28 01:41:48;;;;;;;;;;;-0.90;99.90;;;;;;5056418;28;19908;-81
2023/01/28 01:44:33;;;;;;;;;;;-0.90;99.90;;;;;;5055314;28;19944;-81
2023/01/28 01:46:58;;;;;;;;;;;-0.90;99.90;;;;;;5055701;28;19933;-82
2023/01/28 01:49:25;;;;;;;;;;;-0.90;99.90;;;;;;5055488;28;19909;-82
2023/01/28 01:52:00;;;;;;;;;;;-0.90;99.90;;;;;;5056054;28;19905;-82
2023/01/28 01:54:35;;;;;;;;;;;-0.90;99.90;;;;;;5056049;28;19913;-80
2023/01/28 01:57:02;;;;;;;;;;;-0.80;99.90;;;;;;5054798;28;19937;-82
2023/01/28 01:59:35;;;;;;;;;;;-0.80;99.90;;;;;;5056019;28;19901;-80
2023/01/28 02:02:11;;;;;;;;;;;-0.80;99.90;;;;;;5047358;28;19909;-80
2023/01/28 02:07:27;;;;;;;;;;;-0.90;99.90;;;;;;5023032;28;19901;-81
2023/01/28 02:09:59;;;;;;;;;;;-0.80;99.90;;;;;;5019531;28;20591;-80
2023/01/28 02:12:27;;;;;;;;;;;-0.80;99.90;;;;;;5019642;28;19910;-82
2023/01/28 02:14:56;;;;;;;;;;;-0.80;99.90;;;;;;5052997;28;19897;-82
2023/01/28 02:17:22;;;;;;;;;;;-0.80;99.90;;;;;;5048690;28;19978;-81
2023/01/28 02:19:47;;;;;;;;;;;-0.80;99.90;;;;;;5039702;28;19920;-81
2023/01/28 02:22:32;;;;;;;;;;;-0.80;99.90;;;;;;5043699;28;19909;-82
2023/01/28 02:25:24;;;;;;;;;;;-0.80;99.90;;;;;;5052039;28;19921;-81
2023/01/28 02:27:49;;;;;;;;;;;-0.80;99.90;;;;;;5032498;28;19901;-81
2023/01/28 02:30:21;;;;;;;;;;;-0.80;99.90;;;;;;5050531;28;19939;-81
2023/01/28 02:33:06;;;;;;;;;;;-0.80;99.90;;;;;;5050813;28;19964;-81
2023/01/28 02:35:38;;;;;;;;;;;-0.80;99.90;;;;;;5054700;28;19905;-79
2023/01/28 02:38:08;;;;;;;;;;;-0.80;99.90;;;;;;5055180;28;19911;-81
2023/01/28 02:41:00;;;;;;;;;;;-0.70;99.90;;;;;;5055343;28;19933;-81
2023/01/28 02:43:39;;;;;;;;;;;-0.70;99.90;;;;;;5055650;28;19960;-83
2023/01/28 02:48:57;;;;;;;;;;;-0.70;99.90;;;;;;5016922;28;19941;-81
2023/01/28 02:51:41;;;;;;;;;;;-0.70;99.90;;;;;;5014009;28;19918;-82
2023/01/28 02:54:17;;;;;;;;;;;-0.60;99.90;;;;;;5016129;28;19917;-81
2023/01/28 02:56:46;;;;;;;;;;;-0.60;99.90;;;;;;5016326;28;19902;-81
2023/01/28 02:59:30;;;;;;;;;;;-0.70;99.90;;;;;;5017955;28;20158;-84
2023/01/28 03:01:58;;;;;;;;;;;-0.70;99.90;;;;;;5017288;28;19918;-83
2023/01/28 03:04:35;;;;;;;;;;;-0.60;99.90;;;;;;5029600;28;19918;-81
2023/01/28 03:07:05;;;;;;;;;;;-0.60;99.90;;;;;;5034525;28;19920;-81
2023/01/28 03:09:31;;;;;;;;;;;-0.60;99.90;;;;;;5034931;28;19916;-82
2023/01/28 03:38:17;;;;;;;;;;;-0.70;99.90;;;;;;5018727;28;19916;-83
2023/01/28 03:40:50;;;;;;;;;;;-0.70;99.90;;;;;;5017966;28;19941;-83
2023/01/28 03:43:15;;;;;;;;;;;-0.70;99.90;;;;;;5016074;28;19987;-82
2023/01/28 03:45:41;;;;;;;;;;;-0.70;99.90;;;;;;5015936;28;19913;-82
2023/01/28 03:48:07;;;;;;;;;;;-0.70;99.90;;;;;;5017922;28;19917;-83
2023/01/28 03:50:32;;;;;;;;;;;-0.70;99.90;;;;;;5018029;28;19964;-83
2023/01/28 03:53:10;;;;;;;;;;;-0.80;99.90;;;;;;5017902;28;19916;-82
2023/01/28 03:55:36;;;;;;;;;;;-0.70;99.90;;;;;;5012946;28;19933;-83
2023/01/28 03:58:02;;;;;;;;;;;-0.70;99.90;;;;;;5012239;28;19917;-83
2023/01/28 04:00:28;;;;;;;;;;;-0.70;99.90;;;;;;5032244;28;19921;-81
2023/01/28 04:02:53;;;;;;;;;;;-0.80;99.90;;;;;;5053949;28;19909;-82
2023/01/28 04:05:19;;;;;;;;;;;-0.70;99.90;;;;;;5035568;28;19918;-83
2023/01/28 04:07:45;;;;;;;;;;;-0.70;99.90;;;;;;5023166;28;19945;-84
2023/01/28 04:10:10;;;;;;;;;;;-0.70;99.90;;;;;;5031489;28;20011;-83
2023/01/28 04:12:36;;;;;;;;;;;-0.80;99.90;;;;;;5041009;28;19909;-82
2023/01/28 04:15:13;;;;;;;;;;;-0.70;99.90;;;;;;5041327;28;19932;-82
2023/01/28 04:17:42;;;;;;;;;;;-0.70;99.90;;;;;;5041971;28;19910;-82
2023/01/28 04:20:08;;;;;;;;;;;-0.80;99.90;;;;;;5041961;28;19909;-82
2023/01/28 04:22:34;;;;;;;;;;;-0.80;99.90;;;;;;5043584;28;19951;-83
2023/01/28 04:24:59;;;;;;;;;;;-0.80;99.90;;;;;;5041950;28;19984;-83
2023/01/28 04:27:25;;;;;;;;;;;-0.80;99.90;;;;;;5030371;28;20019;-83
2023/01/28 04:30:03;;;;;;;;;;;-0.80;99.90;;;;;;5020236;28;19933;-83
2023/01/28 04:32:28;;;;;;;;;;;-0.80;99.90;;;;;;5026769;28;19909;-82
2023/01/28 04:34:54;;;;;;;;;;;-0.80;99.90;;;;;;5022984;28;20281;-83
2023/01/28 04:37:20;;;;;;;;;;;-0.80;99.90;;;;;;5005222;28;19921;-82
2023/01/28 04:39:45;;;;;;;;;;;-0.70;99.90;;;;;;5021229;28;19936;-82
2023/01/28 04:42:11;;;;;;;;;;;-0.70;99.90;;;;;;5020912;28;19916;-82
2023/01/28 04:44:36;;;;;;;;;;;-0.70;99.90;;;;;;5020766;28;19975;-82
2023/01/28 04:47:02;;;;;;;;;;;-0.70;99.90;;;;;;5018413;28;19913;-82
2023/01/28 04:49:27;;;;;;;;;;;-0.80;99.90;;;;;;5018579;28;19917;-82
2023/01/28 04:51:53;;;;;;;;;;;-0.70;99.90;;;;;;5021632;28;19948;-82
2023/01/28 04:54:18;;;;;;;;;;;-0.70;99.90;;;;;;5023509;28;20404;-81
2023/01/28 04:56:44;;;;;;;;;;;-0.80;99.90;;;;;;5028578;28;19910;-81
2023/01/28 04:59:09;;;;;;;;;;;-0.70;99.90;;;;;;5030590;28;19921;-81
2023/01/28 05:01:35;;;;;;;;;;;-0.70;99.90;;;;;;5037094;28;19985;-82
2023/01/28 05:04:04;;;;;;;;;;;-0.70;99.90;;;;;;5049420;28;19916;-81
2023/01/28 05:06:30;;;;;;;;;;;-0.70;99.90;;;;;;5055891;28;19980;-78
2023/01/28 05:08:56;;;;;;;;;;;-0.70;99.90;;;;;;5057078;28;19901;-78
2023/01/28 05:11:22;;;;;;;;;;;-0.80;99.90;;;;;;5057087;28;19921;-79
2023/01/28 05:13:48;;;;;;;;;;;-0.80;99.90;;;;;;5056760;28;19901;-79
2023/01/28 05:16:14;;;;;;;;;;;-0.70;99.90;;;;;;5073411;28;19957;-78
2023/01/28 05:18:39;;;;;;;;;;;-0.70;99.90;;;;;;5057785;28;19917;-80
2023/01/28 05:21:05;;;;;;;;;;;-0.70;99.90;;;;;;5036989;28;19917;-82
2023/01/28 05:23:30;;;;;;;;;;;-0.70;99.90;;;;;;5033883;28;20024;-81
2023/01/28 05:25:56;;;;;;;;;;;-0.70;99.90;;;;;;5039686;28;19915;-82
2023/01/28 05:28:22;;;;;;;;;;;-0.70;99.90;;;;;;5037654;28;19955;-82
2023/01/28 05:30:47;;;;;;;;;;;-0.70;99.90;;;;;;5035822;28;19909;-82
2023/01/28 05:33:13;;;;;;;;;;;-0.70;99.90;;;;;;5031130;28;19917;-82
2023/01/28 05:35:38;;;;;;;;;;;-0.70;99.90;;;;;;5031195;28;20290;-81
2023/01/28 05:38:04;;;;;;;;;;;-0.70;99.90;;;;;;5020180;28;19995;-81
2023/01/28 05:40:31;;;;;;;;;;;-0.80;99.90;;;;;;5026015;28;19989;-80
2023/01/28 05:42:57;;;;;;;;;;;-0.80;99.90;;;;;;5038406;28;19914;-81
2023/01/28 05:45:22;;;;;;;;;;;-0.80;99.90;;;;;;5040796;28;19916;-82
2023/01/28 05:47:48;;;;;;;;;;;-0.80;99.90;;;;;;5002443;28;19910;-83
2023/01/28 05:50:14;;;;;;;;;;;-0.80;99.90;;;;;;5002399;28;19909;-83
2023/01/28 05:52:39;;;;;;;;;;;-0.80;99.90;;;;;;5002853;28;19910;-81
2023/01/28 05:55:05;;;;;;;;;;;-0.80;99.90;;;;;;5001803;28;19910;-84
2023/01/28 05:57:35;;;;;;;;;;;-0.80;99.90;;;;;;5009215;28;19909;-85
2023/01/28 06:00:01;;;;;;;;;;;-0.80;99.90;;;;;;5015029;28;19925;-85
2023/01/28 06:02:36;;;;;;;;;;;-0.80;99.90;;;;;;5036447;28;19917;-84
2023/01/28 06:05:02;;;;;;;;;;;-0.80;99.90;;;;;;5043610;28;19917;-83
2023/01/28 06:07:29;;;;;;;;;;;-0.80;99.90;;;;;;5045024;28;19909;-84
2023/01/28 06:09:55;;;;;;;;;;;-0.80;99.90;;;;;;5048181;28;19909;-83
2023/01/28 06:12:20;;;;;;;;;;;-0.80;99.90;;;;;;5046444;28;20009;-83
2023/01/28 06:14:46;;;;;;;;;;;-0.80;99.90;;;;;;5044882;28;19944;-83
2023/01/28 06:17:12;;;;;;;;;;;-0.80;99.90;;;;;;5041572;28;19913;-83
2023/01/28 06:19:37;;;;;;;;;;;-0.80;99.90;;;;;;5038399;28;19920;-83
2023/01/28 06:22:03;;;;;;;;;;;-0.80;99.90;;;;;;5036087;28;19913;-83
2023/01/28 06:24:29;;;;;;;;;;;-0.80;99.90;;;;;;5018699;28;19925;-83
2023/01/28 06:26:54;;;;;;;;;;;-0.80;99.90;;;;;;5019286;28;19948;-83
2023/01/28 06:29:20;;;;;;;;;;;-0.80;99.90;;;;;;5019490;28;19972;-83
2023/01/28 06:31:45;;;;;;;;;;;-0.80;99.90;;;;;;5023578;28;19908;-84
2023/01/28 06:34:12;;;;;;;;;;;-0.80;99.90;;;;;;5018227;28;19929;-83
2023/01/28 06:36:37;;;;;;;;;;;-0.80;99.90;;;;;;5017188;28;19920;-83
2023/01/28 06:39:03;;;;;;;;;;;-0.80;99.90;;;;;;5018500;28;19909;-83
2023/01/28 06:41:28;;;;;;;;;;;-0.80;99.90;;;;;;5016663;28;19910;-84
2023/01/28 06:43:54;;;;;;;;;;;-0.80;99.90;;;;;;5030273;28;20365;-83
2023/01/28 06:46:20;;;;;;;;;;;-0.70;99.90;;;;;;5019771;28;19920;-84
2023/01/28 06:48:45;;;;;;;;;;;-0.80;99.90;;;;;;5018144;28;19949;-83
2023/01/28 06:51:11;;;;;;;;;;;-0.80;99.90;;;;;;5017183;28;19920;-83
2023/01/28 06:53:36;;;;;;;;;;;-0.80;99.90;;;;;;5027222;28;19913;-84
2023/01/28 06:56:02;;;;;;;;;;;-0.80;99.90;;;;;;5050940;28;20405;-84
2023/01/28 06:58:27;;;;;;;;;;;-0.80;99.90;;;;;;5035548;28;19973;-83
2023/01/28 07:00:53;;;;;;;;;;;-0.80;99.90;;;;;;5034136;28;19917;-83
2023/01/28 07:03:18;;;;;;;;;;;-0.80;99.90;;;;;;5036648;28;19972;-83
2023/01/28 07:05:44;;;;;;;;;;;-0.80;99.90;;;;;;5038740;28;19906;-83
2023/01/28 07:08:10;;;;;;;;;;;-0.80;99.90;;;;;;5022163;28;20019;-84
2023/01/28 07:10:35;;;;;;;;;;;-0.90;99.90;;;;;;5016435;28;19910;-83
2023/01/28 07:13:01;;;;;;;;;;;-0.80;99.90;;;;;;5017835;28;19933;-82
2023/01/28 07:15:26;;;;;;;;;;;-0.80;99.90;;;;;;5035612;28;19960;-84
2023/01/28 07:17:52;;;;;;;;;;;-0.80;99.90;;;;;;5052658;28;19917;-84
2023/01/28 07:20:17;;;;;;;;;;;-0.80;99.90;;;;;;5037130;28;20334;-83
2023/01/28 07:22:44;;;;;;;;;;;-0.80;99.90;;;;;;5035661;28;19920;-83
2023/01/28 07:25:10;;;;;;;;;;;-0.80;99.90;;;;;;5035899;28;19920;-84
2023/01/28 07:27:36;;;;;;;;;;;-0.80;99.90;;;;;;5038125;28;20019;-84
2023/01/28 07:30:02;;;;;;;;;;;-0.80;99.90;;;;;;5035427;28;19917;-83
2023/01/28 07:32:28;;;;;;;;;;;-0.80;99.90;;;;;;5018702;28;20294;-84
2023/01/28 07:34:53;;;;;;;;;;;-0.80;99.90;;;;;;5027358;28;19940;-84
2023/01/28 07:37:19;;;;;;;;;;;-0.80;99.90;;;;;;5019070;28;19933;-84
2023/01/28 07:39:45;;;;;;;;;;;-0.80;99.90;;;;;;5022587;28;19910;-83
2023/01/28 07:42:10;;;;;;;;;;;-0.80;99.90;;;;;;5020748;28;20338;-83
2023/01/28 07:44:36;;;;;;;;;;;-0.80;99.90;;;;;;5025266;28;20351;-83
2023/01/28 07:47:02;;;;;;;;;;;-0.80;99.90;;;;;;5041565;28;19913;-83
2023/01/28 07:49:27;;;;;;;;;;;-0.70;99.90;;;;;;5041710;28;20000;-84
2023/01/28 07:51:53;;;;;;;;;;;-0.70;99.90;;;;;;5053134;28;19897;-85
2023/01/28 07:54:18;;;;;;;;;;;-0.70;99.90;;;;;;5057429;28;19927;-83
2023/01/28 07:56:44;;;;;;;;;;;-0.60;99.90;;;;;;5039011;28;19905;-83
2023/01/28 07:59:10;;;;;;;;;;;-0.60;99.90;;;;;;5034505;28;19918;-84
2023/01/28 08:01:35;;;;;;;;;;;-0.70;99.90;;;;;;5046746;28;19935;-82
2023/01/28 08:04:01;;;;;;;;;;;-0.70;99.90;;;;;;5040675;28;19953;-83
2023/01/28 08:06:29;;;;;;;;;;;-0.70;99.90;;;;;;5032938;28;20289;-84
2023/01/28 08:08:55;;;;;;;;;;;-0.70;99.90;;;;;;5040017;28;19932;-84
2023/01/28 08:11:20;;;;;;;;;;;-0.60;99.90;;;;;;5039624;28;19909;-84
2023/01/28 08:13:47;;;;;;;;;;;-0.60;99.90;;;;;;5040078;28;20297;-84
2023/01/28 08:16:12;;;;;;;;;;;-0.60;99.90;;;;;;5038281;28;20007;-84
2023/01/28 08:18:38;;;;;;;;;;;-0.50;99.90;;;;;;5029814;28;19960;-84
2023/01/28 08:21:04;;;;;;;;;;;-0.50;99.90;;;;;;5019820;28;19924;-85
2023/01/28 08:23:29;;;;;;;;;;;-0.40;99.90;;;;;;5020155;28;19928;-84
2023/01/28 08:25:57;;;;;;;;;;;-0.40;99.90;;;;;;5021985;28;19913;-83
2023/01/28 08:28:22;;;;;;;;;;;-0.40;99.90;;;;;;5039176;28;20338;-84
2023/01/28 08:30:48;;;;;;;;;;;-0.50;99.90;;;;;;5037115;28;19968;-83
2023/01/28 08:33:14;;;;;;;;;;;-0.40;99.90;;;;;;5040607;28;19967;-84
2023/01/28 08:35:40;;;;;;;;;;;-0.30;99.90;;;;;;5038960;28;19909;-84
2023/01/28 08:38:06;;;;;;;;;;;-0.30;99.90;;;;;;5041009;28;19963;-83
2023/01/28 08:40:32;;;;;;;;;;;-0.30;99.90;;;;;;5040294;28;19913;-83
2023/01/28 08:42:57;;;;;;;;;;;-0.30;99.90;;;;;;5049355;28;19913;-83
2023/01/28 08:45:24;;;;;;;;;;;-0.20;99.90;;;;;;5054191;28;19913;-83
2023/01/28 08:47:54;;;;;;;;;;;-0.30;99.90;;;;;;5038076;28;19953;-83
2023/01/28 08:50:20;;;;;;;;;;;-0.30;99.90;;;;;;5013177;28;19920;-84
2023/01/28 08:52:46;;;;;;;;;;;-0.30;99.90;;;;;;5008566;28;19925;-83
2023/01/28 08:55:12;;;;;;;;;;;-0.30;99.90;;;;;;5016378;28;19937;-83
2023/01/28 08:57:38;;;;;;;;;;;-0.30;99.90;;;;;;5023193;28;19921;-84
2023/01/28 09:00:04;;;;;;;;;;;-0.20;99.90;;;;;;5025803;28;19921;-84
2023/01/28 09:02:30;;;;;;;;;;;-0.20;99.90;;;;;;5038574;28;19917;-83
2023/01/28 09:04:55;;;;;;;;;;;-0.20;99.90;;;;;;5057239;28;19921;-83
2023/01/28 09:07:21;;;;;;;;;;;-0.20;99.90;;;;;;5058131;28;19973;-84
2023/01/28 09:09:47;;;;;;;;;;;-0.10;99.90;;;;;;5058322;28;19921;-84
2023/01/28 09:12:12;;;;;;;;;;;-0.10;99.90;;;;;;5074901;23;19928;-80
2023/01/28 09:14:38;;;;;;;;;;;-0.10;99.90;;;;;;5002982;28;19918;-79
2023/01/28 09:17:03;;;;;;;;;;;0.00;99.90;;;;;;5009741;28;20286;-81
2023/01/28 09:19:29;;;;;;;;;;;0.10;99.90;;;;;;5026618;28;20265;-81
2023/01/28 09:21:54;;;;;;;;;;;0.20;99.90;;;;;;5030612;28;19951;-80
2023/01/28 09:24:20;;;;;;;;;;;0.30;99.90;;;;;;5030460;28;19945;-79
2023/01/28 09:26:48;;;;;;;;;;;0.40;99.90;;;;;;5029193;28;19961;-81
2023/01/28 09:29:14;;;;;;;;;;;0.60;99.90;;;;;;5042044;28;19917;-81
2023/01/28 09:31:40;;;;;;;;;;;0.60;99.90;;;;;;5045756;28;19956;-80
2023/01/28 09:34:06;;;;;;;;;;;0.70;99.90;;;;;;5021064;28;19909;-81
2023/01/28 09:36:31;;;;;;;;;;;0.70;99.90;;;;;;5030506;28;19993;-81
2023/01/28 09:38:57;;;;;;;;;;;0.70;99.90;;;;;;5038938;28;19917;-81
2023/01/28 09:41:29;;;;;;;;;;;0.70;99.90;;;;;;5029928;28;20051;-79
2023/01/28 09:43:58;;;;;;;;;;;0.90;99.90;;;;;;5012142;28;19913;-80
2023/01/28 09:46:32;;;;;;;;;;;1.10;99.90;;;;;;5011828;28;19960;-80
2023/01/28 09:49:00;;;;;;;;;;;1.10;99.90;;;;;;5029338;28;19965;-78
2023/01/28 09:51:30;;;;;;;;;;;1.10;99.90;;;;;;5026724;28;19921;-78
2023/01/28 09:53:57;;;;;;;;;;;1.10;99.90;;;;;;5057012;28;19913;-78
2023/01/28 09:56:31;;;;;;;;;;;1.20;99.90;;;;;;5039648;28;19976;-79
2023/01/28 09:59:09;;;;;;;;;;;1.40;99.90;;;;;;5049016;28;19952;-80
2023/01/28 10:01:44;;;;;;;;;;;1.60;99.90;;;;;;5025426;28;19909;-80
2023/01/28 10:04:38;;;;;;;;;;;1.60;99.10;;;;;;5020481;28;19922;-81
2023/01/28 10:07:24;;;;;;;;;;;1.50;99.50;;;;;;4954536;28;19940;-79
2023/01/28 10:10:00;;;;;;;;;;;1.50;99.40;;;;;;5006612;28;19921;-79
2023/01/28 10:12:35;;;;;;;;;;;1.60;99.10;;;;;;5025186;28;19973;-80
2023/01/28 10:15:19;;;;;;;;;;;1.60;98.60;;;;;;5007180;28;19914;-80
2023/01/28 10:17:46;;;;;;;;;;;1.50;98.50;;;;;;5023906;28;19909;-79
2023/01/28 10:20:11;;;;;;;;;;;1.70;98.50;;;;;;5027025;28;19914;-80
2023/01/28 10:22:43;;;;;;;;;;;1.80;98.40;;;;;;5006800;28;19910;-79
2023/01/28 10:25:17;;;;;;;;;;;1.90;98.10;;;;;;5024454;28;19997;-80
2023/01/28 10:27:43;;;;;;;;;;;2.10;97.90;;;;;;5026882;28;19924;-81
2023/01/28 10:30:29;;;;;;;;;;;2.30;97.60;;;;;;5028904;28;20004;-81
2023/01/28 10:32:57;;;;;;;;;;;2.20;96.40;;;;;;5041028;28;19936;-80
2023/01/28 10:35:23;;;;;;;;;;;2.10;97.10;;;;;;5025407;28;19952;-81
2023/01/28 10:37:49;;;;;;;;;;;2.00;97.10;;;;;;5027781;28;19909;-81
2023/01/28 10:40:15;;;;;;;;;;;1.90;97.20;;;;;;5026996;28;19909;-80
2023/01/28 10:42:41;;;;;;;;;;;1.80;96.70;;;;;;5008193;28;19918;-78
2023/01/28 10:45:12;;;;;;;;;;;1.70;97.20;;;;;;5023795;28;19915;-81
2023/01/28 10:47:50;;;;;;;;;;;1.80;96.40;;;;;;5006873;28;19909;-77
2023/01/28 10:50:19;;;;;;;;;;;1.70;96.60;;;;;;5025188;28;19914;-78
2023/01/28 10:53:01;;;;;;;;;;;1.80;97.10;;;;;;5022860;28;20380;-78
2023/01/28 10:55:28;;;;;;;;;;;1.90;96.40;;;;;;5044621;28;19914;-79
2023/01/28 10:57:54;;;;;;;;;;;1.90;95.80;;;;;;5043014;28;20336;-76
2023/01/28 11:00:25;;;;;;;;;;;2.00;96.40;;;;;;5042512;28;19933;-80
2023/01/28 11:02:50;;;;;;;;;;;2.20;96.20;;;;;;5026645;28;19913;-81
2023/01/28 11:05:17;;;;;;;;;;;2.30;95.20;;;;;;5043873;28;19940;-77
2023/01/28 11:07:43;;;;;;;;;;;2.40;95.20;;;;;;5041963;28;19917;-78
2023/01/28 11:10:27;;;;;;;;;;;2.50;95.20;;;;;;5043359;28;19909;-78
2023/01/28 11:12:56;;;;;;;;;;;2.60;94.60;;;;;;5028217;28;19924;-80
2023/01/28 11:15:22;;;;;;;;;;;2.60;94.30;;;;;;5024795;28;19909;-80
2023/01/28 11:17:51;;;;;;;;;;;2.50;93.50;;;;;;5006224;28;20044;-80
2023/01/28 11:20:21;;;;;;;;;;;2.50;93.20;;;;;;5024334;28;19898;-79
2023/01/28 11:22:47;;;;;;;;;;;2.50;93.90;;;;;;5023155;28;19935;-79
2023/01/28 11:25:19;;;;;;;;;;;2.50;93.40;;;;;;5006906;28;19909;-76
2023/01/28 11:27:48;;;;;;;;;;;2.40;93.60;;;;;;5031655;28;19932;-77
2023/01/28 11:30:20;;;;;;;;;;;2.30;93.50;;;;;;5022648;28;19917;-77
2023/01/28 11:32:52;;;;;;;;;;;2.20;92.20;;;;;;5030109;28;19920;-77
2023/01/28 11:35:29;;;;;;;;;;;2.20;92.80;;;;;;5004600;28;19909;-79
2023/01/28 11:37:54;;;;;;;;;;;2.30;93.50;;;;;;5021288;28;19920;-78
2023/01/28 11:40:20;;;;;;;;;;;2.30;93.40;;;;;;5022528;28;20262;-79
2023/01/28 11:42:47;;;;;;;;;;;2.40;93.60;;;;;;5023002;28;19914;-79
2023/01/28 11:45:17;;;;;;;;;;;2.60;93.30;;;;;;5019343;28;19910;-79
2023/01/28 11:47:42;;;;;;;;;;;2.90;93.10;;;;;;5019228;28;20389;-79
2023/01/28 11:50:23;;;;;;;;;;;2.90;91.40;;;;;;5001206;28;19917;-79
2023/01/28 11:53:07;;;;;;;;;;;2.80;91.60;;;;;;5024190;28;20012;-78
2023/01/28 11:55:39;;;;;;;;;;;2.70;91.40;;;;;;5024149;28;20340;-80
2023/01/28 11:58:17;;;;;;;;;;;2.50;91.50;;;;;;5042510;28;19913;-79
2023/01/28 12:00:43;;;;;;;;;;;2.50;92.10;;;;;;5035062;28;19913;-79
2023/01/28 12:03:26;;;;;;;;;;;2.50;91.20;;;;;;5026290;28;19983;-78
2023/01/28 12:05:53;;;;;;;;;;;2.60;91.20;;;;;;5035855;28;19909;-78
2023/01/28 12:08:23;;;;;;;;;;;2.50;91.30;;;;;;5043097;28;19955;-79
2023/01/28 12:10:56;;;;;;;;;;;2.50;92.10;;;;;;5041682;28;20060;-79
2023/01/28 12:13:22;;;;;;;;;;;2.50;92.50;;;;;;5040339;28;19964;-78
2023/01/28 12:15:50;;;;;;;;;;;2.60;92.30;;;;;;5023420;28;19910;-79
2023/01/28 12:18:22;;;;;;;;;;;2.60;91.70;;;;;;5022816;28;19980;-78
2023/01/28 12:20:53;;;;;;;;;;;2.60;91.00;;;;;;5023024;28;20157;-79
2023/01/28 12:23:29;;;;;;;;;;;2.60;89.40;;;;;;5024921;28;19964;-77
2023/01/28 12:25:57;;;;;;;;;;;2.60;90.50;;;;;;5010966;28;19921;-79
2023/01/28 12:28:43;;;;;;;;;;;2.70;90.80;;;;;;5009271;28;19913;-79
2023/01/28 12:31:16;;;;;;;;;;;2.80;90.80;;;;;;5026346;28;19918;-79
2023/01/28 12:33:52;;;;;;;;;;;2.90;87.90;;;;;;5026595;28;19909;-76
2023/01/28 12:36:42;;;;;;;;;;;2.80;89.50;;;;;;5007074;28;19960;-80
2023/01/28 12:39:11;;;;;;;;;;;2.80;90.30;;;;;;5007163;28;19910;-79
2023/01/28 12:41:47;;;;;;;;;;;2.80;89.70;;;;;;5007873;28;19910;-79
2023/01/28 12:44:25;;;;;;;;;;;2.60;89.60;;;;;;5007723;28;19929;-78
2023/01/28 12:46:54;;;;;;;;;;;2.40;89.80;;;;;;5026415;28;19936;-79
2023/01/28 12:49:23;;;;;;;;;;;2.30;90.70;;;;;;5026378;28;20354;-79
2023/01/28 12:52:00;;;;;;;;;;;2.10;91.50;;;;;;5026441;28;20110;-80
2023/01/28 12:54:32;;;;;;;;;;;1.90;92.50;;;;;;5026156;28;20060;-79
2023/01/28 12:56:58;;;;;;;;;;;1.80;93.40;;;;;;4989437;28;19921;-80
2023/01/28 12:59:28;;;;;;;;;;;1.70;93.90;;;;;;4989675;28;19947;-78
2023/01/28 13:02:12;;;;;;;;;;;1.70;94.20;;;;;;5028697;28;19913;-79
2023/01/28 13:04:41;;;;;;;;;;;1.60;94.70;;;;;;5042297;28;19920;-80
2023/01/28 13:07:13;;;;;;;;;;;1.50;95.00;;;;;;5025722;28;19909;-80
2023/01/28 13:09:47;;;;;;;;;;;1.50;95.10;;;;;;5026219;28;19913;-80
2023/01/28 13:12:13;;;;;;;;;;;1.40;95.20;;;;;;5025774;28;19910;-80
2023/01/28 13:14:39;;;;;;;;;;;1.40;95.30;;;;;;5025943;28;19924;-77
2023/01/28 13:17:12;;;;;;;;;;;1.30;95.40;;;;;;5040839;28;19938;-78
2023/01/28 13:19:39;;;;;;;;;;;1.30;95.70;;;;;;5045645;28;19909;-79
2023/01/28 13:22:12;;;;;;;;;;;1.20;95.90;;;;;;5044449;28;19918;-80
2023/01/28 13:24:37;;;;;;;;;;;1.20;96.00;;;;;;5043149;28;19913;-79
2023/01/28 13:27:11;;;;;;;;;;;1.20;96.10;;;;;;5029910;28;19917;-80
2023/01/28 13:29:36;;;;;;;;;;;1.20;96.30;;;;;;5024239;28;19920;-79
2023/01/28 13:32:22;;;;;;;;;;;1.20;96.50;;;;;;5014400;28;20004;-80
2023/01/28 13:34:55;;;;;;;;;;;1.30;96.70;;;;;;5024062;28;19919;-77
2023/01/28 13:37:26;;;;;;;;;;;1.30;95.70;;;;;;5024897;28;19913;-80
2023/01/28 13:39:57;;;;;;;;;;;1.30;96.10;;;;;;5025885;28;19917;-79
2023/01/28 13:42:27;;;;;;;;;;;1.30;95.80;;;;;;5028001;28;19925;-79
2023/01/28 13:44:53;;;;;;;;;;;1.30;95.70;;;;;;5025593;28;19972;-79
2023/01/28 13:47:24;;;;;;;;;;;1.30;95.70;;;;;;5017518;28;19968;-77
2023/01/28 13:49:54;;;;;;;;;;;1.40;95.40;;;;;;5045950;28;20004;-78
2023/01/28 13:52:31;;;;;;;;;;;1.40;95.20;;;;;;5049794;28;19909;-78
2023/01/28 13:54:56;;;;;;;;;;;1.30;95.00;;;;;;5046675;28;19909;-79
2023/01/28 13:57:22;;;;;;;;;;;1.30;94.80;;;;;;5044371;28;20015;-78
2023/01/28 13:59:56;;;;;;;;;;;1.30;94.80;;;;;;5044383;28;19917;-80
2023/01/28 14:02:24;;;;;;;;;;;1.30;94.80;;;;;;5036035;28;19996;-79
2023/01/28 14:04:55;;;;;;;;;;;1.30;95.10;;;;;;5007070;28;19945;-80
2023/01/28 14:07:26;;;;;;;;;;;1.20;95.00;;;;;;5025910;28;19933;-78
2023/01/28 14:10:10;;;;;;;;;;;1.20;95.20;;;;;;5019536;28;20420;-80
2023/01/28 14:12:42;;;;;;;;;;;1.20;95.10;;;;;;5025986;28;19913;-79
2023/01/28 14:15:17;;;;;;;;;;;1.20;95.50;;;;;;5027018;28;20397;-80
2023/01/28 14:17:43;;;;;;;;;;;1.20;95.90;;;;;;5029007;28;19936;-79
2023/01/28 14:20:17;;;;;;;;;;;1.40;95.90;;;;;;5044959;28;19920;-78
2023/01/28 14:22:43;;;;;;;;;;;1.40;96.00;;;;;;5040838;28;19920;-80
2023/01/28 14:25:15;;;;;;;;;;;1.30;96.00;;;;;;5023563;28;19909;-80
2023/01/28 14:27:44;;;;;;;;;;;1.30;96.20;;;;;;5027649;28;19909;-80
2023/01/28 14:30:23;;;;;;;;;;;1.20;96.30;;;;;;5043294;28;19992;-79
2023/01/28 14:32:50;;;;;;;;;;;1.20;96.70;;;;;;5035966;28;19929;-80
2023/01/28 14:35:29;;;;;;;;;;;1.20;97.00;;;;;;5034327;28;19909;-80
2023/01/28 14:37:56;;;;;;;;;;;1.20;97.00;;;;;;5010802;28;20370;-80
2023/01/28 14:40:22;;;;;;;;;;;1.20;96.90;;;;;;5027558;28;19909;-81
2023/01/28 14:42:49;;;;;;;;;;;1.10;97.10;;;;;;5026353;28;19973;-79
2023/01/28 14:45:15;;;;;;;;;;;1.10;97.00;;;;;;5027296;28;19910;-80
2023/01/28 14:47:40;;;;;;;;;;;1.10;96.90;;;;;;5027353;28;19919;-77
2023/01/28 14:50:24;;;;;;;;;;;1.10;96.90;;;;;;5010873;28;19909;-78
2023/01/28 14:53:05;;;;;;;;;;;1.10;96.70;;;;;;5010602;28;19925;-80
2023/01/28 14:55:49;;;;;;;;;;;1.10;96.80;;;;;;5028505;28;19921;-80
2023/01/28 14:58:19;;;;;;;;;;;1.10;97.00;;;;;;5028214;28;19921;-81
2023/01/28 15:00:55;;;;;;;;;;;1.20;96.90;;;;;;5030894;28;19909;-83
2023/01/28 15:03:21;;;;;;;;;;;1.20;96.80;;;;;;5039470;28;19920;-81